createdAt,value
2018-06-11T00:01:28.258Z,18.30
2018-06-11T00:03:56.434Z,18.30
2018-06-11T00:06:24.614Z,18.20
2018-06-11T00:08:52.758Z,18.20
2018-06-11T00:11:20.923Z,18.30
2018-06-11T00:13:49.093Z,18.20
2018-06-11T00:16:17.402Z,18.20
2018-06-11T00:18:45.572Z,18.10
2018-06-11T00:21:13.774Z,18.10
2018-06-11T00:23:41.946Z,18.10
2018-06-11T00:26:10.113Z,18.20
2018-06-11T00:28:38.282Z,18.10
2018-06-11T00:31:06.438Z,18.10
2018-06-11T00:33:34.604Z,18.10
2018-06-11T00:36:02.803Z,18.10
2018-06-11T00:38:30.974Z,18.20
2018-06-11T00:40:59.146Z,18.10
2018-06-11T00:43:27.297Z,18.10
2018-06-11T00:45:56.304Z,18.00
2018-06-11T00:48:24.501Z,18.10
2018-06-11T00:50:52.672Z,18.10
2018-06-11T00:53:20.829Z,18.00
2018-06-11T00:56:00.386Z,17.90
2018-06-11T00:58:28.546Z,17.90
2018-06-11T01:00:56.702Z,17.80
2018-06-11T01:03:24.978Z,17.80
2018-06-11T01:05:53.182Z,17.70
2018-06-11T01:08:21.353Z,17.70
2018-06-11T01:10:49.537Z,17.70
2018-06-11T01:13:17.720Z,17.60
2018-06-11T01:15:45.881Z,17.60
2018-06-11T01:18:14.046Z,17.60
2018-06-11T01:20:42.222Z,17.50
2018-06-11T01:23:10.376Z,17.40
2018-06-11T01:25:38.553Z,17.50
2018-06-11T01:28:06.741Z,17.40
2018-06-11T01:30:34.941Z,17.30
2018-06-11T01:33:03.121Z,17.20
2018-06-11T01:35:31.289Z,17.40
2018-06-11T01:37:59.485Z,17.50
2018-06-11T01:40:27.676Z,17.40
2018-06-11T01:42:55.842Z,17.40
2018-06-11T01:45:24.018Z,17.40
2018-06-11T01:50:20.114Z,17.40
2018-06-11T01:52:48.320Z,17.20
2018-06-11T01:55:16.485Z,17.10
2018-06-11T01:57:44.686Z,17.20
2018-06-11T02:00:12.862Z,17.30
2018-06-11T02:02:41.048Z,17.20
2018-06-11T02:05:09.230Z,17.10
2018-06-11T02:07:37.443Z,17.00
2018-06-11T02:10:05.610Z,17.00
2018-06-11T02:12:33.785Z,17.10
2018-06-11T02:15:01.957Z,17.10
2018-06-11T02:17:30.121Z,17.10
2018-06-11T02:19:58.289Z,17.10
2018-06-11T02:22:26.483Z,16.90
2018-06-11T02:24:54.709Z,16.80
2018-06-11T02:27:22.941Z,16.90
2018-06-11T02:29:51.199Z,16.90
2018-06-11T02:32:19.354Z,17.00
2018-06-11T02:34:47.521Z,17.00
2018-06-11T02:37:15.685Z,17.00
2018-06-11T02:39:43.873Z,16.80
2018-06-11T02:42:12.094Z,16.90
2018-06-11T02:44:40.278Z,16.90
2018-06-11T02:47:08.436Z,16.90
2018-06-11T02:49:36.610Z,16.90
2018-06-11T02:52:04.800Z,16.90
2018-06-11T02:54:32.987Z,16.90
2018-06-11T02:57:01.181Z,16.80
2018-06-11T02:59:29.402Z,16.80
2018-06-11T03:01:57.563Z,16.90
2018-06-11T03:04:25.781Z,16.90
2018-06-11T03:06:53.954Z,16.90
2018-06-11T03:09:22.090Z,16.80
2018-06-11T03:11:50.302Z,16.80
2018-06-11T03:14:18.470Z,16.70
2018-06-11T03:16:46.680Z,16.70
2018-06-11T03:19:14.834Z,16.80
2018-06-11T03:21:42.982Z,16.80
2018-06-11T03:24:11.194Z,16.90
2018-06-11T03:26:39.360Z,16.80
2018-06-11T03:29:07.538Z,16.70
2018-06-11T03:31:35.702Z,16.70
2018-06-11T03:34:03.893Z,16.60
2018-06-11T03:36:32.060Z,16.70
2018-06-11T03:39:00.225Z,16.80
2018-06-11T03:41:28.392Z,16.60
2018-06-11T03:43:56.569Z,16.60
2018-06-11T03:46:24.862Z,16.70
2018-06-11T03:48:53.050Z,16.80
2018-06-11T03:53:49.194Z,16.80
2018-06-11T03:56:17.357Z,16.70
2018-06-11T03:58:45.558Z,16.80
2018-06-11T04:01:13.714Z,16.80
2018-06-11T04:03:41.894Z,16.90
2018-06-11T04:06:10.423Z,16.90
2018-06-11T04:08:38.586Z,16.80
2018-06-11T04:11:06.848Z,16.90
2018-06-11T04:13:34.925Z,16.90
2018-06-11T04:16:03.195Z,16.90
2018-06-11T04:18:31.345Z,17.00
2018-06-11T04:20:59.521Z,17.00
2018-06-11T04:23:27.691Z,17.00
2018-06-11T04:25:55.854Z,17.00
2018-06-11T04:28:24.020Z,17.00
2018-06-11T04:30:52.184Z,17.00
2018-06-11T04:33:20.362Z,17.00
2018-06-11T04:35:48.502Z,17.00
2018-06-11T04:38:16.653Z,17.00
2018-06-11T04:40:44.813Z,17.00
2018-06-11T04:43:13.014Z,17.10
2018-06-11T04:45:41.191Z,17.00
2018-06-11T04:48:09.353Z,17.00
2018-06-11T04:50:37.542Z,17.00
2018-06-11T04:53:06.587Z,17.00
2018-06-11T04:55:35.434Z,16.90
2018-06-11T04:58:03.866Z,16.80
2018-06-11T05:00:32.046Z,16.70
2018-06-11T05:03:00.186Z,16.80
2018-06-11T05:05:28.362Z,16.80
2018-06-11T05:07:56.509Z,16.80
2018-06-11T05:10:24.659Z,16.90
2018-06-11T05:15:20.827Z,17.00
2018-06-11T05:17:48.981Z,17.00
2018-06-11T05:20:17.146Z,17.00
2018-06-11T05:22:45.323Z,17.00
2018-06-11T05:25:13.587Z,17.10
2018-06-11T05:27:41.725Z,17.10
2018-06-11T05:30:09.919Z,17.30
2018-06-11T05:32:38.093Z,17.20
2018-06-11T05:35:06.329Z,17.30
2018-06-11T05:37:34.483Z,17.20
2018-06-11T05:40:02.679Z,17.20
2018-06-11T05:42:30.845Z,17.20
2018-06-11T05:44:59.111Z,17.10
2018-06-11T05:47:27.278Z,17.10
2018-06-11T05:49:55.491Z,17.10
2018-06-11T05:52:23.662Z,17.20
2018-06-11T05:54:51.848Z,17.20
2018-06-11T05:57:20.055Z,17.10
2018-06-11T05:59:48.306Z,17.10
2018-06-11T06:02:16.598Z,17.10
2018-06-11T06:04:44.782Z,17.30
2018-06-11T06:07:14.106Z,17.40
2018-06-11T06:09:42.460Z,17.30
2018-06-11T06:12:10.618Z,17.30
2018-06-11T06:14:38.787Z,17.20
2018-06-11T06:17:06.987Z,17.20
2018-06-11T06:19:35.436Z,17.20
2018-06-11T06:22:03.665Z,17.10
2018-06-11T06:24:31.878Z,17.20
2018-06-11T06:27:00.049Z,17.30
2018-06-11T06:29:28.269Z,17.30
2018-06-11T06:31:56.429Z,17.40
2018-06-11T06:34:24.703Z,17.40
2018-06-11T06:36:52.802Z,17.40
2018-06-11T06:39:20.984Z,17.40
2018-06-11T06:41:49.230Z,17.40
2018-06-11T06:44:17.405Z,17.40
2018-06-11T06:46:45.606Z,17.40
2018-06-11T06:51:41.720Z,17.40
2018-06-11T06:54:09.948Z,17.50
2018-06-11T06:56:38.203Z,17.50
2018-06-11T06:59:06.361Z,17.60
2018-06-11T07:01:34.528Z,17.50
2018-06-11T07:04:02.949Z,17.80
2018-06-11T07:06:31.141Z,17.80
2018-06-11T07:08:59.338Z,17.90
2018-06-11T07:11:27.538Z,18.00
2018-06-11T07:13:55.746Z,18.00
2018-06-11T07:16:23.939Z,18.00
2018-06-11T07:18:52.138Z,18.00
2018-06-11T07:21:20.316Z,18.00
2018-06-11T07:23:48.487Z,18.00
2018-06-11T07:26:16.698Z,18.00
2018-06-11T07:28:44.869Z,17.90
2018-06-11T07:31:13.061Z,18.00
2018-06-11T07:33:41.206Z,18.20
2018-06-11T07:36:09.367Z,18.30
2018-06-11T07:38:37.547Z,18.60
2018-06-11T07:41:05.747Z,18.80
2018-06-11T07:43:33.960Z,19.00
2018-06-11T07:46:02.141Z,19.00
2018-06-11T07:48:30.312Z,19.00
2018-06-11T07:50:58.457Z,19.00
2018-06-11T07:53:26.620Z,18.90
2018-06-11T07:55:54.790Z,19.00
2018-06-11T07:58:23.009Z,18.80
2018-06-11T08:00:51.246Z,18.70
2018-06-11T08:05:47.389Z,18.90
2018-06-11T08:08:16.733Z,19.00
2018-06-11T08:10:44.907Z,18.90
2018-06-11T08:13:13.091Z,18.90
2018-06-11T08:15:41.297Z,18.90
2018-06-11T08:18:09.479Z,19.00
2018-06-11T08:20:37.634Z,19.10
2018-06-11T08:23:06.026Z,19.20
2018-06-11T08:25:34.219Z,19.20
2018-06-11T08:28:02.418Z,19.10
2018-06-11T08:30:30.570Z,19.10
2018-06-11T08:32:58.771Z,19.10
2018-06-11T08:35:26.960Z,19.20
2018-06-11T08:37:55.136Z,19.50
2018-06-11T08:40:23.303Z,19.40
2018-06-11T08:42:51.482Z,19.40
2018-06-11T08:45:19.750Z,19.20
2018-06-11T08:47:47.917Z,19.30
2018-06-11T08:50:16.111Z,19.30
2018-06-11T08:52:44.270Z,19.50
2018-06-11T08:55:12.429Z,19.60
2018-06-11T08:57:40.654Z,19.50
2018-06-11T09:00:08.891Z,19.70
2018-06-11T09:02:37.042Z,19.60
2018-06-11T09:05:05.568Z,19.50
2018-06-11T09:07:33.754Z,19.70
2018-06-11T09:10:02.042Z,19.90
2018-06-11T09:12:30.274Z,19.90
2018-06-11T09:14:58.394Z,19.90
2018-06-11T09:17:26.633Z,19.90
2018-06-11T09:19:54.824Z,20.20
2018-06-11T09:22:23.213Z,20.40
2018-06-11T09:24:51.449Z,20.40
2018-06-11T09:27:19.618Z,20.40
2018-06-11T09:29:47.818Z,20.50
2018-06-11T09:32:16.277Z,20.40
2018-06-11T09:34:44.477Z,20.20
2018-06-11T09:37:12.643Z,20.10
2018-06-11T09:39:40.814Z,20.00
2018-06-11T09:42:08.962Z,19.90
2018-06-11T09:44:37.126Z,19.90
2018-06-11T09:47:05.366Z,20.10
2018-06-11T09:49:33.626Z,20.20
2018-06-11T09:52:01.814Z,20.50
2018-06-11T09:54:30.261Z,20.70
2018-06-11T09:56:58.454Z,20.50
2018-06-11T09:59:26.757Z,20.50
2018-06-11T10:01:54.946Z,20.50
2018-06-11T10:04:23.134Z,20.70
2018-06-11T10:06:51.331Z,20.90
2018-06-11T10:09:19.510Z,21.20
2018-06-11T10:11:47.670Z,21.30
2018-06-11T10:14:15.863Z,21.00
2018-06-11T10:16:44.030Z,20.90
2018-06-11T10:19:12.215Z,21.00
2018-06-11T10:21:40.413Z,21.10
2018-06-11T10:24:08.612Z,21.30
2018-06-11T10:26:36.815Z,21.50
2018-06-11T10:29:04.989Z,21.50
2018-06-11T10:31:33.353Z,21.60
2018-06-11T10:34:01.529Z,21.80
2018-06-11T10:36:33.022Z,21.70
2018-06-11T10:39:01.222Z,21.80
2018-06-11T10:41:29.431Z,21.80
2018-06-11T10:43:57.614Z,21.70
2018-06-11T10:46:25.802Z,21.80
2018-06-11T10:48:53.994Z,21.80
2018-06-11T10:51:22.166Z,21.70
2018-06-11T10:53:50.470Z,21.70
2018-06-11T10:56:18.714Z,21.80
2018-06-11T10:58:46.928Z,21.70
2018-06-11T11:01:15.111Z,21.60
2018-06-11T11:03:43.389Z,21.70
2018-06-11T11:06:11.595Z,21.60
2018-06-11T11:08:39.765Z,21.60
2018-06-11T11:11:07.958Z,21.80
2018-06-11T11:13:36.123Z,21.80
2018-06-11T11:16:04.530Z,22.00
2018-06-11T11:18:32.701Z,22.20
2018-06-11T11:21:00.879Z,22.40
2018-06-11T11:23:29.034Z,22.30
2018-06-11T11:25:57.229Z,22.20
2018-06-11T11:28:25.416Z,22.10
2018-06-11T11:30:53.603Z,22.40
2018-06-11T11:33:21.965Z,22.50
2018-06-11T11:35:50.114Z,22.50
2018-06-11T11:38:18.271Z,22.50
2018-06-11T11:40:46.422Z,22.50
2018-06-11T11:43:14.613Z,22.50
2018-06-11T11:45:42.774Z,22.60
2018-06-11T11:48:10.971Z,22.50
2018-06-11T11:50:39.139Z,22.30
2018-06-11T11:53:07.277Z,22.50
2018-06-11T11:55:35.438Z,22.20
2018-06-11T11:58:03.609Z,22.10
2018-06-11T12:00:31.786Z,22.20
2018-06-11T12:03:00.050Z,22.30
2018-06-11T12:05:28.667Z,22.70
2018-06-11T12:07:56.938Z,23.00
2018-06-11T12:10:25.206Z,23.30
2018-06-11T12:12:53.411Z,23.20
2018-06-11T12:15:22.593Z,23.10
2018-06-11T12:17:50.758Z,23.20
2018-06-11T12:20:18.934Z,23.20
2018-06-11T12:22:47.116Z,23.20
2018-06-11T12:25:15.304Z,23.10
2018-06-11T12:27:43.487Z,23.20
2018-06-11T12:30:11.740Z,23.30
2018-06-11T12:32:39.881Z,23.40
2018-06-11T12:35:08.078Z,23.60
2018-06-11T12:37:37.496Z,23.70
2018-06-11T12:40:05.875Z,24.00
2018-06-11T12:42:35.369Z,23.80
2018-06-11T12:45:03.635Z,23.80
2018-06-11T12:47:33.322Z,23.80
2018-06-11T12:50:01.655Z,23.80
2018-06-11T12:52:29.885Z,23.80
2018-06-11T12:54:58.056Z,23.80
2018-06-11T12:57:26.250Z,23.70
2018-06-11T12:59:54.457Z,23.80
2018-06-11T13:02:22.625Z,23.90
2018-06-11T13:04:51.001Z,23.70
2018-06-11T13:07:19.169Z,23.50
2018-06-11T13:09:47.353Z,23.50
2018-06-11T13:12:15.546Z,23.70
2018-06-11T13:14:43.785Z,23.80
2018-06-11T13:17:11.934Z,24.00
2018-06-11T13:19:40.110Z,24.00
2018-06-11T13:22:08.385Z,24.00
2018-06-11T13:24:36.583Z,24.10
2018-06-11T13:27:04.788Z,24.10
2018-06-11T13:29:32.954Z,24.10
2018-06-11T13:32:01.154Z,24.10
2018-06-11T13:34:29.366Z,24.20
2018-06-11T13:36:57.614Z,23.90
2018-06-11T13:39:25.790Z,23.80
2018-06-11T13:41:53.986Z,23.80
2018-06-11T13:44:22.206Z,23.90
2018-06-11T13:46:50.500Z,23.90
2018-06-11T13:49:18.654Z,23.80
2018-06-11T13:51:46.831Z,23.60
2018-06-11T13:54:15.030Z,23.60
2018-06-11T13:56:43.338Z,23.50
2018-06-11T14:01:40.414Z,23.80
2018-06-11T14:04:08.570Z,23.60
2018-06-11T14:09:07.230Z,23.80
2018-06-11T14:11:35.603Z,23.90
2018-06-11T14:14:03.728Z,23.80
2018-06-11T14:16:31.890Z,23.80
2018-06-11T14:19:00.086Z,23.80
2018-06-11T14:21:28.249Z,23.80
2018-06-11T14:23:56.494Z,24.00
2018-06-11T14:26:24.684Z,24.00
2018-06-11T14:28:52.850Z,24.10
2018-06-11T14:31:21.002Z,23.80
2018-06-11T14:33:49.210Z,23.60
2018-06-11T14:36:21.854Z,23.70
2018-06-11T14:38:55.392Z,23.60
2018-06-11T14:41:23.816Z,23.70
2018-06-11T14:43:57.750Z,23.60
2018-06-11T14:46:26.326Z,23.50
2018-06-11T14:48:54.574Z,23.40
2018-06-11T14:51:25.434Z,23.30
2018-06-11T14:53:53.805Z,23.10
2018-06-11T14:56:22.701Z,23.10
2018-06-11T14:58:50.884Z,22.90
2018-06-11T15:01:19.277Z,23.00
2018-06-11T15:03:50.171Z,23.10
2018-06-11T15:06:19.724Z,23.10
2018-06-11T15:08:48.972Z,23.10
2018-06-11T15:11:17.179Z,23.20
2018-06-11T15:13:45.370Z,23.20
2018-06-11T15:16:13.875Z,23.20
2018-06-11T15:18:42.090Z,23.20
2018-06-11T15:21:10.330Z,23.30
2018-06-11T15:23:38.840Z,23.40
2018-06-11T15:26:07.135Z,23.40
2018-06-11T15:28:37.632Z,23.40
2018-06-11T15:31:07.251Z,23.40
2018-06-11T15:33:36.059Z,23.40
2018-06-11T15:36:04.746Z,23.40
2018-06-11T15:38:37.182Z,23.40
2018-06-11T15:41:05.504Z,23.30
2018-06-11T15:43:33.822Z,23.20
2018-06-11T15:46:02.042Z,23.20
2018-06-11T15:48:33.755Z,23.20
2018-06-11T15:51:02.038Z,23.10
2018-06-11T15:53:30.273Z,23.00
2018-06-11T15:55:58.609Z,23.00
2018-06-11T15:58:26.782Z,22.90
2018-06-11T16:00:55.098Z,22.90
2018-06-11T16:03:23.481Z,22.90
2018-06-11T16:05:51.698Z,22.90
2018-06-11T16:08:20.003Z,22.90
2018-06-11T16:10:49.302Z,22.80
2018-06-11T16:13:18.570Z,22.60
2018-06-11T16:15:46.859Z,22.60
2018-06-11T16:18:15.109Z,22.70
2018-06-11T16:20:43.561Z,22.70
2018-06-11T16:23:12.818Z,22.60
2018-06-11T16:25:43.272Z,22.60
2018-06-11T16:28:11.644Z,22.70
2018-06-11T16:30:39.753Z,22.60
2018-06-11T16:33:07.977Z,22.50
2018-06-11T16:35:36.189Z,22.50
2018-06-11T16:38:04.476Z,22.40
2018-06-11T16:40:32.625Z,22.50
2018-06-11T16:43:00.877Z,22.50
2018-06-11T16:45:29.035Z,22.50
2018-06-11T16:47:57.231Z,22.40
2018-06-11T16:50:25.716Z,22.40
2018-06-11T16:52:54.176Z,22.50
2018-06-11T16:55:22.365Z,22.50
2018-06-11T16:57:50.582Z,22.50
2018-06-11T17:00:18.946Z,22.40
2018-06-11T17:02:50.886Z,22.30
2018-06-11T17:05:19.118Z,22.30
2018-06-11T17:07:48.226Z,22.30
2018-06-11T17:10:16.503Z,22.30
2018-06-11T17:12:44.684Z,22.30
2018-06-11T17:15:12.907Z,22.30
2018-06-11T17:17:41.147Z,22.40
2018-06-11T17:20:16.105Z,22.30
2018-06-11T17:22:44.349Z,22.10
2018-06-11T17:25:12.836Z,22.20
2018-06-11T17:27:41.034Z,22.20
2018-06-11T17:37:38.942Z,22.20
2018-06-11T17:42:42.176Z,22.10
2018-06-11T17:47:45.407Z,22.10
2018-06-11T17:52:48.632Z,22.10
2018-06-11T17:57:51.872Z,22.20
2018-06-11T18:02:55.077Z,22.20
2018-06-11T18:07:58.701Z,22.10
2018-06-11T18:13:01.910Z,22.10
2018-06-11T18:18:05.112Z,21.90
2018-06-11T18:23:08.278Z,21.90
2018-06-11T18:28:11.583Z,21.80
2018-06-11T18:33:14.790Z,21.70
2018-06-11T18:38:17.958Z,21.70
2018-06-11T18:43:21.165Z,21.50
2018-06-11T18:48:24.411Z,21.40
2018-06-11T18:53:27.611Z,21.40
2018-06-11T18:58:30.806Z,21.30
2018-06-11T19:03:33.975Z,21.10
2018-06-11T19:08:37.194Z,21.00
2018-06-11T19:18:43.579Z,20.70
2018-06-11T19:23:46.844Z,20.80
2018-06-11T19:28:50.145Z,20.80
2018-06-11T19:33:53.373Z,20.80
2018-06-11T19:38:57.687Z,20.80
2018-06-11T19:44:00.854Z,20.70
2018-06-11T19:49:04.050Z,20.50
2018-06-11T19:54:07.273Z,20.40
2018-06-11T19:59:10.437Z,20.50
2018-06-11T20:04:13.601Z,20.40
2018-06-11T20:09:16.844Z,20.30
2018-06-11T20:14:19.968Z,20.20
2018-06-11T20:19:23.241Z,20.10
2018-06-11T20:24:29.532Z,20.10
2018-06-11T20:29:32.698Z,20.00
2018-06-11T20:34:35.865Z,20.00
2018-06-11T20:39:39.071Z,19.90
2018-06-11T20:44:42.318Z,19.80
2018-06-11T20:49:45.507Z,19.70
2018-06-11T20:54:48.686Z,19.60
2018-06-11T20:59:56.399Z,19.60
2018-06-11T21:04:59.562Z,19.50
2018-06-11T21:10:02.765Z,19.50
2018-06-11T21:15:06.041Z,19.50
2018-06-11T21:20:09.194Z,19.40
2018-06-11T21:25:12.374Z,19.50
2018-06-11T21:30:15.541Z,19.50
2018-06-11T21:35:18.786Z,19.50
2018-06-11T21:40:21.969Z,19.50
2018-06-11T21:45:25.191Z,19.60
2018-06-11T21:50:28.344Z,19.50
2018-06-11T21:55:31.526Z,19.50
2018-06-11T22:00:34.764Z,19.30
2018-06-11T22:05:37.985Z,19.30
2018-06-11T22:10:41.134Z,19.10
2018-06-11T22:15:44.342Z,18.80
2018-06-11T22:20:47.534Z,19.00
2018-06-11T22:25:50.742Z,18.90
2018-06-11T22:30:53.952Z,18.80
2018-06-11T22:35:57.182Z,18.80
2018-06-11T22:41:00.366Z,18.60
2018-06-11T22:46:03.928Z,18.70
2018-06-11T22:51:07.091Z,18.60
2018-06-11T22:56:10.342Z,18.50
2018-06-11T23:01:13.521Z,18.40
2018-06-11T23:06:16.719Z,18.30
2018-06-11T23:11:21.017Z,18.10
2018-06-11T23:16:24.217Z,18.10
2018-06-11T23:21:27.458Z,18.10
2018-06-11T23:26:30.728Z,18.10
2018-06-11T23:31:34.899Z,18.10
2018-06-11T23:36:38.137Z,18.10
2018-06-11T23:41:41.305Z,18.00
2018-06-11T23:46:44.598Z,18.00
2018-06-11T23:51:47.762Z,17.90
2018-06-11T23:56:50.997Z,17.60
